Gns Naa Gbewaa — 9GQQ — position and weather

sailwx.info

Track history (hours):
 
Tides and Currents Weather Stations Pressure Air Temp Water Temp Dewpoint Dewpoint Depression Visibility Wind Speed Wind Dir Waves Ship Positions

Gns Naa Gbewaa

Last reported at 2017-Oct-17 17:45 UTC. Time now 2017-Dec-11 17:09 UTC.
Position N 04°56' W 001°42'.
Warning: this ship's position is 54 days out of date.

Length 58 m; draft 2.6 m.

Type: Military. MMSI: 627400700.

Date/timePositionNaut miles runAvg speedWind from/ knotsBaromVisibWave heightAir tempDewpointWater temp
2017-Oct-17 17:45N 04°56' W 001°42'0 0.4
2017-Oct-17 17:29N 04°56' W 001°42'3 6.0
2017-Oct-17 16:59N 04°56' W 001°39'611.6
2017-Oct-17 16:29N 04°50' W 001°37'9 9.0
2017-Oct-17 15:30N 04°42' W 001°34'3 5.8
2017-Oct-17 15:00N 04°39' W 001°35'5 8.9
2017-Oct-17 14:30N 04°39' W 001°30'1 1.3
2017-Oct-17 14:00N 04°40' W 001°31'510.2
2017-Oct-17 13:29N 04°35' W 001°34'3 5.7
2017-Oct-17 13:00N 04°38' W 001°33'510.5
2017-Oct-17 12:30N 04°43' W 001°33'5 9.3
2017-Oct-17 12:00N 04°48' W 001°34'4 8.7
2017-Oct-17 11:30N 04°52' W 001°35'2 4.2
2017-Oct-17 10:59N 04°54' W 001°35'1 1.3
2017-Oct-17 10:29N 04°54' W 001°35'4 7.5
2017-Oct-17 09:59N 04°55' W 001°39'4 7.7
2017-Oct-17 09:29N 04°56' W 001°42'0 0.0
2017-Oct-17 08:59N 04°56' W 001°42'0 0.0
2017-Oct-17 08:30N 04°56' W 001°42'0 0.0
2017-Oct-17 08:00N 04°56' W 001°42'0 0.0
2017-Oct-16 15:13N 04°56' W 001°42'0 0.0
2017-Oct-16 14:59N 04°56' W 001°42'0 0.0
2017-Oct-16 14:00N 04°56' W 001°42'0 0.0
2017-Oct-16 13:30N 04°56' W 001°42'0 0.0
2017-Oct-16 12:59N 04°56' W 001°42'0 0.0
2017-Oct-16 09:30N 04°56' W 001°42'25 5.0
2017-Oct-16 04:33N 04°38' W 001°59'114.4
2017-Oct-16 04:28N 04°38' W 002°01'714.0
2017-Oct-16 03:59N 04°36' W 002°07'714.2
2017-Oct-16 03:29N 04°40' W 002°13'20 5.7
2017-Oct-15 23:57N 04°45' W 002°33'1313.9
2017-Oct-15 23:00N 04°40' W 002°20'713.8
2017-Oct-15 22:30N 04°38' W 002°14'  
Track history (hours):
 
Tides and Currents Weather Stations Pressure Air Temp Water Temp Dewpoint Dewpoint Depression Visibility Wind Speed Wind Dir Waves Ship Positions

Gns Naa Gbewaa

Last reported at 2017-Oct-17 17:45 UTC. Time now 2017-Dec-11 17:09 UTC.
Position N 04°56' W 001°42'.
Warning: this ship's position is 54 days out of date.

Length 58 m; draft 2.6 m.

Type: Military. MMSI: 627400700.

Date/timePositionNaut miles runAvg speedWind from/ knotsBaromVisibWave heightAir tempDewpointWater temp
2017-Oct-17 17:45N 04°56' W 001°42'0 0.4
2017-Oct-17 17:29N 04°56' W 001°42'3 6.0
2017-Oct-17 16:59N 04°56' W 001°39'611.6
2017-Oct-17 16:29N 04°50' W 001°37'9 9.0
2017-Oct-17 15:30N 04°42' W 001°34'3 5.8
2017-Oct-17 15:00N 04°39' W 001°35'5 8.9
2017-Oct-17 14:30N 04°39' W 001°30'1 1.3
2017-Oct-17 14:00N 04°40' W 001°31'510.2
2017-Oct-17 13:29N 04°35' W 001°34'3 5.7
2017-Oct-17 13:00N 04°38' W 001°33'510.5
2017-Oct-17 12:30N 04°43' W 001°33'5 9.3
2017-Oct-17 12:00N 04°48' W 001°34'4 8.7
2017-Oct-17 11:30N 04°52' W 001°35'2 4.2
2017-Oct-17 10:59N 04°54' W 001°35'1 1.3
2017-Oct-17 10:29N 04°54' W 001°35'4 7.5
2017-Oct-17 09:59N 04°55' W 001°39'4 7.7
2017-Oct-17 09:29N 04°56' W 001°42'0 0.0
2017-Oct-17 08:59N 04°56' W 001°42'0 0.0
2017-Oct-17 08:30N 04°56' W 001°42'0 0.0
2017-Oct-17 08:00N 04°56' W 001°42'0 0.0
2017-Oct-16 15:13N 04°56' W 001°42'0 0.0
2017-Oct-16 14:59N 04°56' W 001°42'0 0.0
2017-Oct-16 14:00N 04°56' W 001°42'0 0.0
2017-Oct-16 13:30N 04°56' W 001°42'0 0.0
2017-Oct-16 12:59N 04°56' W 001°42'0 0.0
2017-Oct-16 09:30N 04°56' W 001°42'25 5.0
2017-Oct-16 04:33N 04°38' W 001°59'114.4
2017-Oct-16 04:28N 04°38' W 002°01'714.0
2017-Oct-16 03:59N 04°36' W 002°07'714.2
2017-Oct-16 03:29N 04°40' W 002°13'20 5.7
2017-Oct-15 23:57N 04°45' W 002°33'1313.9
2017-Oct-15 23:00N 04°40' W 002°20'713.8
2017-Oct-15 22:30N 04°38' W 002°14'  

Dump ship's entire track history